sensor_id;sensor_type;location;lat;lon;timestamp;temperature;humidity
23289;DHT22;11813;50.834;4.280;2023-11-19T00:01:49;14.50;99.90
23289;DHT22;11813;50.834;4.280;2023-11-19T00:04:14;14.50;99.90
23289;DHT22;11813;50.834;4.280;2023-11-19T00:06:40;14.50;99.90
23289;DHT22;11813;50.834;4.280;2023-11-19T00:09:06;14.50;99.90
23289;DHT22;11813;50.834;4.280;2023-11-19T00:11:33;14.50;99.90
23289;DHT22;11813;50.834;4.280;2023-11-19T00:13:58;14.50;99.90
23289;DHT22;11813;50.834;4.280;2023-11-19T00:16:24;14.50;99.90
23289;DHT22;11813;50.834;4.280;2023-11-19T00:18:50;14.50;99.90
23289;DHT22;11813;50.834;4.280;2023-11-19T00:21:15;14.50;99.90
23289;DHT22;11813;50.834;4.280;2023-11-19T00:23:41;14.40;99.90
23289;DHT22;11813;50.834;4.280;2023-11-19T00:26:07;14.50;99.90
23289;DHT22;11813;50.834;4.280;2023-11-19T00:28:32;14.50;99.90
23289;DHT22;11813;50.834;4.280;2023-11-19T00:30:59;14.50;99.90
23289;DHT22;11813;50.834;4.280;2023-11-19T00:33:24;14.40;99.90
23289;DHT22;11813;50.834;4.280;2023-11-19T00:35:50;14.40;99.90
23289;DHT22;11813;50.834;4.280;2023-11-19T00:38:16;14.40;99.90
23289;DHT22;11813;50.834;4.280;2023-11-19T00:40:41;14.40;99.90
23289;DHT22;11813;50.834;4.280;2023-11-19T00:43:07;14.40;99.90
23289;DHT22;11813;50.834;4.280;2023-11-19T00:45:33;14.40;99.90
23289;DHT22;11813;50.834;4.280;2023-11-19T00:47:58;14.40;99.90
23289;DHT22;11813;50.834;4.280;2023-11-19T00:50:27;14.40;99.90
23289;DHT22;11813;50.834;4.280;2023-11-19T00:52:53;14.40;99.90
23289;DHT22;11813;50.834;4.280;2023-11-19T00:55:19;14.50;99.90
23289;DHT22;11813;50.834;4.280;2023-11-19T00:57:44;14.50;99.90
23289;DHT22;11813;50.834;4.280;2023-11-19T01:00:10;14.50;99.90
23289;DHT22;11813;50.834;4.280;2023-11-19T01:02:47;14.50;99.90
23289;DHT22;11813;50.834;4.280;2023-11-19T01:05:15;14.40;99.90
23289;DHT22;11813;50.834;4.280;2023-11-19T01:07:40;14.40;99.90
23289;DHT22;11813;50.834;4.280;2023-11-19T01:10:06;14.50;99.90
23289;DHT22;11813;50.834;4.280;2023-11-19T01:12:33;14.40;99.90
23289;DHT22;11813;50.834;4.280;2023-11-19T01:14:59;14.40;99.90
23289;DHT22;11813;50.834;4.280;2023-11-19T01:17:26;14.40;99.90
23289;DHT22;11813;50.834;4.280;2023-11-19T01:19:52;14.50;99.90
23289;DHT22;11813;50.834;4.280;2023-11-19T01:22:17;14.50;99.90
23289;DHT22;11813;50.834;4.280;2023-11-19T01:24:44;14.50;99.90
23289;DHT22;11813;50.834;4.280;2023-11-19T01:27:09;14.50;99.90
23289;DHT22;11813;50.834;4.280;2023-11-19T01:29:35;14.50;99.90
23289;DHT22;11813;50.834;4.280;2023-11-19T01:32:00;14.60;99.90
23289;DHT22;11813;50.834;4.280;2023-11-19T01:34:26;14.60;99.90
23289;DHT22;11813;50.834;4.280;2023-11-19T01:36:52;14.50;99.90
23289;DHT22;11813;50.834;4.280;2023-11-19T01:39:18;14.40;99.90
23289;DHT22;11813;50.834;4.280;2023-11-19T01:41:45;14.40;99.90
23289;DHT22;11813;50.834;4.280;2023-11-19T01:44:10;14.40;99.90
23289;DHT22;11813;50.834;4.280;2023-11-19T01:46:44;14.40;99.90
23289;DHT22;11813;50.834;4.280;2023-11-19T01:49:11;14.40;99.90
23289;DHT22;11813;50.834;4.280;2023-11-19T01:51:39;14.30;99.90
23289;DHT22;11813;50.834;4.280;2023-11-19T01:54:05;14.30;99.90
23289;DHT22;11813;50.834;4.280;2023-11-19T01:56:32;14.20;99.90
23289;DHT22;11813;50.834;4.280;2023-11-19T01:58:57;14.20;99.90
23289;DHT22;11813;50.834;4.280;2023-11-19T02:01:23;14.20;99.90
23289;DHT22;11813;50.834;4.280;2023-11-19T02:03:49;14.20;99.90
23289;DHT22;11813;50.834;4.280;2023-11-19T02:06:15;14.20;99.90
23289;DHT22;11813;50.834;4.280;2023-11-19T02:08:40;14.20;99.90
23289;DHT22;11813;50.834;4.280;2023-11-19T02:11:07;14.20;99.90
23289;DHT22;11813;50.834;4.280;2023-11-19T02:13:32;14.10;99.90
23289;DHT22;11813;50.834;4.280;2023-11-19T02:15:58;14.10;99.90
23289;DHT22;11813;50.834;4.280;2023-11-19T02:18:28;14.20;99.90
23289;DHT22;11813;50.834;4.280;2023-11-19T02:20:57;14.20;99.90
23289;DHT22;11813;50.834;4.280;2023-11-19T02:23:26;14.10;99.90
23289;DHT22;11813;50.834;4.280;2023-11-19T02:25:56;14.20;99.90
23289;DHT22;11813;50.834;4.280;2023-11-19T02:28:25;14.20;99.90
23289;DHT22;11813;50.834;4.280;2023-11-19T02:30:51;14.20;99.90
23289;DHT22;11813;50.834;4.280;2023-11-19T02:33:16;14.20;99.90
23289;DHT22;11813;50.834;4.280;2023-11-19T02:35:42;14.20;99.90
23289;DHT22;11813;50.834;4.280;2023-11-19T02:38:07;14.20;99.90
23289;DHT22;11813;50.834;4.280;2023-11-19T02:40:33;14.10;99.90
23289;DHT22;11813;50.834;4.280;2023-11-19T02:42:59;14.10;99.90
23289;DHT22;11813;50.834;4.280;2023-11-19T02:45:25;14.10;99.90
23289;DHT22;11813;50.834;4.280;2023-11-19T02:47:52;14.10;99.90
23289;DHT22;11813;50.834;4.280;2023-11-19T02:50:19;14.20;99.90
23289;DHT22;11813;50.834;4.280;2023-11-19T02:52:51;14.00;99.90
23289;DHT22;11813;50.834;4.280;2023-11-19T02:55:17;13.90;99.90
23289;DHT22;11813;50.834;4.280;2023-11-19T02:57:43;13.90;99.90
23289;DHT22;11813;50.834;4.280;2023-11-19T03:02:44;13.90;99.90
23289;DHT22;11813;50.834;4.280;2023-11-19T03:05:19;14.00;99.90
23289;DHT22;11813;50.834;4.280;2023-11-19T03:07:45;13.90;99.90
23289;DHT22;11813;50.834;4.280;2023-11-19T03:10:11;13.80;99.90
23289;DHT22;11813;50.834;4.280;2023-11-19T03:12:43;13.80;99.90
23289;DHT22;11813;50.834;4.280;2023-11-19T03:15:09;13.70;99.90
23289;DHT22;11813;50.834;4.280;2023-11-19T03:17:42;13.70;99.90
23289;DHT22;11813;50.834;4.280;2023-11-19T03:20:11;13.70;99.90
23289;DHT22;11813;50.834;4.280;2023-11-19T03:22:40;13.70;99.90
23289;DHT22;11813;50.834;4.280;2023-11-19T03:25:07;13.70;99.90
23289;DHT22;11813;50.834;4.280;2023-11-19T03:27:35;13.70;99.90
23289;DHT22;11813;50.834;4.280;2023-11-19T03:30:02;13.70;99.90
23289;DHT22;11813;50.834;4.280;2023-11-19T03:32:30;13.70;99.90
23289;DHT22;11813;50.834;4.280;2023-11-19T03:34:56;13.70;99.90
23289;DHT22;11813;50.834;4.280;2023-11-19T03:37:22;13.60;99.90
23289;DHT22;11813;50.834;4.280;2023-11-19T03:39:47;13.60;99.90
23289;DHT22;11813;50.834;4.280;2023-11-19T03:42:13;13.60;99.90
23289;DHT22;11813;50.834;4.280;2023-11-19T03:44:38;13.60;99.90
23289;DHT22;11813;50.834;4.280;2023-11-19T03:47:04;13.50;99.90
23289;DHT22;11813;50.834;4.280;2023-11-19T03:49:30;13.40;99.90
23289;DHT22;11813;50.834;4.280;2023-11-19T03:51:55;13.50;99.90
23289;DHT22;11813;50.834;4.280;2023-11-19T03:54:21;13.40;99.90
23289;DHT22;11813;50.834;4.280;2023-11-19T03:56:48;13.30;99.90
23289;DHT22;11813;50.834;4.280;2023-11-19T03:59:14;13.30;99.90
23289;DHT22;11813;50.834;4.280;2023-11-19T04:01:41;13.30;99.90
23289;DHT22;11813;50.834;4.280;2023-11-19T04:04:06;13.30;99.90
23289;DHT22;11813;50.834;4.280;2023-11-19T04:06:32;13.30;99.90
23289;DHT22;11813;50.834;4.280;2023-11-19T04:08:58;13.40;99.90
23289;DHT22;11813;50.834;4.280;2023-11-19T04:11:23;13.50;99.90
23289;DHT22;11813;50.834;4.280;2023-11-19T04:13:49;13.40;99.90
23289;DHT22;11813;50.834;4.280;2023-11-19T04:16:14;13.30;99.90
23289;DHT22;11813;50.834;4.280;2023-11-19T04:18:40;13.30;99.90
23289;DHT22;11813;50.834;4.280;2023-11-19T04:21:07;13.30;99.90
23289;DHT22;11813;50.834;4.280;2023-11-19T04:23:32;13.40;99.90
23289;DHT22;11813;50.834;4.280;2023-11-19T04:25:58;13.40;99.90
23289;DHT22;11813;50.834;4.280;2023-11-19T04:28:23;13.30;99.90
23289;DHT22;11813;50.834;4.280;2023-11-19T04:30:52;13.30;99.90
23289;DHT22;11813;50.834;4.280;2023-11-19T04:33:17;13.30;99.90
23289;DHT22;11813;50.834;4.280;2023-11-19T04:35:43;13.20;99.90
23289;DHT22;11813;50.834;4.280;2023-11-19T04:38:09;13.20;99.90
23289;DHT22;11813;50.834;4.280;2023-11-19T04:40:34;13.10;99.90
23289;DHT22;11813;50.834;4.280;2023-11-19T04:43:00;13.10;99.90
23289;DHT22;11813;50.834;4.280;2023-11-19T04:45:25;13.10;99.90
23289;DHT22;11813;50.834;4.280;2023-11-19T04:47:51;13.10;99.90
23289;DHT22;11813;50.834;4.280;2023-11-19T04:50:16;13.10;99.90
23289;DHT22;11813;50.834;4.280;2023-11-19T04:52:43;13.10;99.90
23289;DHT22;11813;50.834;4.280;2023-11-19T04:55:12;13.00;99.90
23289;DHT22;11813;50.834;4.280;2023-11-19T04:57:37;13.10;99.90
23289;DHT22;11813;50.834;4.280;2023-11-19T05:00:04;13.20;99.90
23289;DHT22;11813;50.834;4.280;2023-11-19T05:02:30;13.20;99.90
23289;DHT22;11813;50.834;4.280;2023-11-19T05:04:56;13.20;99.90
23289;DHT22;11813;50.834;4.280;2023-11-19T05:07:21;13.30;99.90
23289;DHT22;11813;50.834;4.280;2023-11-19T05:09:47;13.20;99.90
23289;DHT22;11813;50.834;4.280;2023-11-19T05:12:13;13.10;99.90
23289;DHT22;11813;50.834;4.280;2023-11-19T05:14:38;13.20;99.90
23289;DHT22;11813;50.834;4.280;2023-11-19T05:17:04;13.20;99.90
23289;DHT22;11813;50.834;4.280;2023-11-19T05:19:30;13.20;99.90
23289;DHT22;11813;50.834;4.280;2023-11-19T05:21:55;13.10;99.90
23289;DHT22;11813;50.834;4.280;2023-11-19T05:24:21;13.10;99.90
23289;DHT22;11813;50.834;4.280;2023-11-19T05:26:46;13.10;99.90
23289;DHT22;11813;50.834;4.280;2023-11-19T05:29:12;13.10;99.90
23289;DHT22;11813;50.834;4.280;2023-11-19T05:31:38;13.10;99.90
23289;DHT22;11813;50.834;4.280;2023-11-19T05:34:04;13.10;99.90
23289;DHT22;11813;50.834;4.280;2023-11-19T05:36:29;13.10;99.90
23289;DHT22;11813;50.834;4.280;2023-11-19T05:38:55;13.10;99.90
23289;DHT22;11813;50.834;4.280;2023-11-19T05:41:21;13.10;99.90
23289;DHT22;11813;50.834;4.280;2023-11-19T05:43:46;13.00;99.90
23289;DHT22;11813;50.834;4.280;2023-11-19T05:46:12;13.00;99.90
23289;DHT22;11813;50.834;4.280;2023-11-19T05:48:38;12.90;99.90
23289;DHT22;11813;50.834;4.280;2023-11-19T05:51:04;12.90;99.90
23289;DHT22;11813;50.834;4.280;2023-11-19T05:53:31;12.90;99.90
23289;DHT22;11813;50.834;4.280;2023-11-19T05:55:57;12.90;99.90
23289;DHT22;11813;50.834;4.280;2023-11-19T05:58:24;13.00;99.90
23289;DHT22;11813;50.834;4.280;2023-11-19T06:00:52;13.00;99.90
23289;DHT22;11813;50.834;4.280;2023-11-19T06:03:17;12.90;99.90
23289;DHT22;11813;50.834;4.280;2023-11-19T06:05:47;12.80;99.90
23289;DHT22;11813;50.834;4.280;2023-11-19T06:08:12;12.80;99.90
23289;DHT22;11813;50.834;4.280;2023-11-19T06:10:42;12.90;99.90
23289;DHT22;11813;50.834;4.280;2023-11-19T06:13:07;12.80;99.90
23289;DHT22;11813;50.834;4.280;2023-11-19T06:15:35;12.80;99.90
23289;DHT22;11813;50.834;4.280;2023-11-19T06:18:01;12.80;99.90
23289;DHT22;11813;50.834;4.280;2023-11-19T06:20:29;12.70;99.90
23289;DHT22;11813;50.834;4.280;2023-11-19T06:22:55;12.70;99.90
23289;DHT22;11813;50.834;4.280;2023-11-19T06:25:22;12.60;99.90
23289;DHT22;11813;50.834;4.280;2023-11-19T06:27:49;12.70;99.90
23289;DHT22;11813;50.834;4.280;2023-11-19T06:30:15;12.70;99.90
23289;DHT22;11813;50.834;4.280;2023-11-19T06:32:41;12.70;99.90
23289;DHT22;11813;50.834;4.280;2023-11-19T06:35:07;12.80;99.90
23289;DHT22;11813;50.834;4.280;2023-11-19T06:37:33;12.80;99.90
23289;DHT22;11813;50.834;4.280;2023-11-19T06:39:59;12.70;99.90
23289;DHT22;11813;50.834;4.280;2023-11-19T06:42:24;12.60;99.90
23289;DHT22;11813;50.834;4.280;2023-11-19T06:44:50;12.60;99.90
23289;DHT22;11813;50.834;4.280;2023-11-19T06:47:17;12.60;99.90
23289;DHT22;11813;50.834;4.280;2023-11-19T06:49:44;12.50;99.90
23289;DHT22;11813;50.834;4.280;2023-11-19T06:52:09;12.50;99.90
23289;DHT22;11813;50.834;4.280;2023-11-19T06:54:35;12.50;99.90
23289;DHT22;11813;50.834;4.280;2023-11-19T06:57:01;12.50;99.90
23289;DHT22;11813;50.834;4.280;2023-11-19T06:59:26;12.60;99.90
23289;DHT22;11813;50.834;4.280;2023-11-19T07:01:52;12.50;99.90
23289;DHT22;11813;50.834;4.280;2023-11-19T07:04:17;12.50;99.90
23289;DHT22;11813;50.834;4.280;2023-11-19T07:06:43;12.50;99.90
23289;DHT22;11813;50.834;4.280;2023-11-19T07:09:09;12.50;99.90
23289;DHT22;11813;50.834;4.280;2023-11-19T07:11:39;12.50;99.90
23289;DHT22;11813;50.834;4.280;2023-11-19T07:14:05;12.50;99.90
23289;DHT22;11813;50.834;4.280;2023-11-19T07:16:35;12.50;99.90
23289;DHT22;11813;50.834;4.280;2023-11-19T07:19:03;12.50;99.90
23289;DHT22;11813;50.834;4.280;2023-11-19T07:21:29;12.50;99.90
23289;DHT22;11813;50.834;4.280;2023-11-19T07:23:55;12.40;99.90
23289;DHT22;11813;50.834;4.280;2023-11-19T07:26:21;12.50;99.90
23289;DHT22;11813;50.834;4.280;2023-11-19T07:28:48;12.50;99.90
23289;DHT22;11813;50.834;4.280;2023-11-19T07:31:13;12.50;99.90
23289;DHT22;11813;50.834;4.280;2023-11-19T07:33:42;12.50;99.90
23289;DHT22;11813;50.834;4.280;2023-11-19T07:36:09;12.50;99.90
23289;DHT22;11813;50.834;4.280;2023-11-19T07:38:34;12.50;99.90
23289;DHT22;11813;50.834;4.280;2023-11-19T07:41:00;12.40;99.90
23289;DHT22;11813;50.834;4.280;2023-11-19T07:43:26;12.40;99.90
23289;DHT22;11813;50.834;4.280;2023-11-19T07:45:52;12.40;99.90
23289;DHT22;11813;50.834;4.280;2023-11-19T07:48:17;12.40;99.90
23289;DHT22;11813;50.834;4.280;2023-11-19T07:50:48;12.40;99.90
23289;DHT22;11813;50.834;4.280;2023-11-19T07:53:19;12.50;99.90
23289;DHT22;11813;50.834;4.280;2023-11-19T07:55:45;12.50;99.90
23289;DHT22;11813;50.834;4.280;2023-11-19T07:58:11;12.60;99.90
23289;DHT22;11813;50.834;4.280;2023-11-19T08:00:37;12.50;99.90
23289;DHT22;11813;50.834;4.280;2023-11-19T08:03:03;12.50;99.90
23289;DHT22;11813;50.834;4.280;2023-11-19T08:05:30;12.50;99.90
23289;DHT22;11813;50.834;4.280;2023-11-19T08:07:56;12.50;99.90
23289;DHT22;11813;50.834;4.280;2023-11-19T08:10:22;12.60;99.90
23289;DHT22;11813;50.834;4.280;2023-11-19T08:12:48;12.60;99.90
23289;DHT22;11813;50.834;4.280;2023-11-19T08:15:14;12.50;99.90
23289;DHT22;11813;50.834;4.280;2023-11-19T08:17:40;12.50;99.90
23289;DHT22;11813;50.834;4.280;2023-11-19T08:20:06;12.50;99.90
23289;DHT22;11813;50.834;4.280;2023-11-19T08:22:36;12.50;99.90
23289;DHT22;11813;50.834;4.280;2023-11-19T08:25:02;12.60;99.90
23289;DHT22;11813;50.834;4.280;2023-11-19T08:27:28;12.60;99.90
23289;DHT22;11813;50.834;4.280;2023-11-19T08:29:54;12.60;99.90
23289;DHT22;11813;50.834;4.280;2023-11-19T08:32:24;12.60;99.90
23289;DHT22;11813;50.834;4.280;2023-11-19T08:34:49;12.70;99.90
23289;DHT22;11813;50.834;4.280;2023-11-19T08:37:15;12.70;99.90
23289;DHT22;11813;50.834;4.280;2023-11-19T08:39:40;12.60;99.90
23289;DHT22;11813;50.834;4.280;2023-11-19T08:42:07;12.70;99.90
23289;DHT22;11813;50.834;4.280;2023-11-19T08:44:33;12.70;99.90
23289;DHT22;11813;50.834;4.280;2023-11-19T08:46:58;12.60;99.90
23289;DHT22;11813;50.834;4.280;2023-11-19T08:49:24;12.70;99.90
23289;DHT22;11813;50.834;4.280;2023-11-19T08:51:49;12.60;99.90
23289;DHT22;11813;50.834;4.280;2023-11-19T08:54:15;12.70;99.90
23289;DHT22;11813;50.834;4.280;2023-11-19T08:56:40;12.70;99.90
23289;DHT22;11813;50.834;4.280;2023-11-19T08:59:06;12.70;99.90
23289;DHT22;11813;50.834;4.280;2023-11-19T09:01:32;12.80;99.90
23289;DHT22;11813;50.834;4.280;2023-11-19T09:03:57;12.80;99.90
23289;DHT22;11813;50.834;4.280;2023-11-19T09:06:23;12.90;99.90
23289;DHT22;11813;50.834;4.280;2023-11-19T09:08:48;12.90;99.90
23289;DHT22;11813;50.834;4.280;2023-11-19T09:11:14;12.90;99.90
23289;DHT22;11813;50.834;4.280;2023-11-19T09:13:40;13.00;99.90
23289;DHT22;11813;50.834;4.280;2023-11-19T09:16:05;13.00;99.90
23289;DHT22;11813;50.834;4.280;2023-11-19T09:18:31;12.90;99.90
23289;DHT22;11813;50.834;4.280;2023-11-19T09:20:57;13.00;99.90
23289;DHT22;11813;50.834;4.280;2023-11-19T09:23:23;13.10;99.90
23289;DHT22;11813;50.834;4.280;2023-11-19T09:25:50;13.10;99.90
23289;DHT22;11813;50.834;4.280;2023-11-19T09:28:16;13.30;99.90
23289;DHT22;11813;50.834;4.280;2023-11-19T09:30:42;13.20;99.90
23289;DHT22;11813;50.834;4.280;2023-11-19T09:33:07;13.20;99.90
23289;DHT22;11813;50.834;4.280;2023-11-19T09:35:33;13.20;99.90
23289;DHT22;11813;50.834;4.280;2023-11-19T09:37:58;13.20;99.90
23289;DHT22;11813;50.834;4.280;2023-11-19T09:40:24;13.30;99.90
23289;DHT22;11813;50.834;4.280;2023-11-19T09:42:51;13.30;99.90
23289;DHT22;11813;50.834;4.280;2023-11-19T09:45:17;13.40;99.90
23289;DHT22;11813;50.834;4.280;2023-11-19T09:47:46;13.50;99.90
23289;DHT22;11813;50.834;4.280;2023-11-19T09:50:19;13.60;99.90
23289;DHT22;11813;50.834;4.280;2023-11-19T09:52:45;13.70;99.90
23289;DHT22;11813;50.834;4.280;2023-11-19T09:55:11;13.70;99.90
23289;DHT22;11813;50.834;4.280;2023-11-19T09:57:40;13.90;99.90
23289;DHT22;11813;50.834;4.280;2023-11-19T10:00:10;13.90;99.90
23289;DHT22;11813;50.834;4.280;2023-11-19T10:02:37;13.90;99.90
23289;DHT22;11813;50.834;4.280;2023-11-19T10:05:06;14.20;99.90
23289;DHT22;11813;50.834;4.280;2023-11-19T10:07:33;14.10;99.90
23289;DHT22;11813;50.834;4.280;2023-11-19T10:10:02;14.20;99.90
23289;DHT22;11813;50.834;4.280;2023-11-19T10:12:31;14.20;99.90
23289;DHT22;11813;50.834;4.280;2023-11-19T10:14:58;14.20;99.90
23289;DHT22;11813;50.834;4.280;2023-11-19T10:17:28;14.20;99.90
23289;DHT22;11813;50.834;4.280;2023-11-19T10:19:55;14.20;99.90
23289;DHT22;11813;50.834;4.280;2023-11-19T10:22:23;14.10;99.90
23289;DHT22;11813;50.834;4.280;2023-11-19T10:24:49;14.10;99.90
23289;DHT22;11813;50.834;4.280;2023-11-19T10:27:15;14.10;99.90
23289;DHT22;11813;50.834;4.280;2023-11-19T10:29:45;14.00;99.90
23289;DHT22;11813;50.834;4.280;2023-11-19T10:32:12;14.00;99.90
23289;DHT22;11813;50.834;4.280;2023-11-19T10:34:38;14.10;99.90
23289;DHT22;11813;50.834;4.280;2023-11-19T10:37:05;14.10;99.90
23289;DHT22;11813;50.834;4.280;2023-11-19T10:39:52;14.00;99.90
23289;DHT22;11813;50.834;4.280;2023-11-19T10:42:21;13.90;99.90
23289;DHT22;11813;50.834;4.280;2023-11-19T10:44:46;13.80;99.90
23289;DHT22;11813;50.834;4.280;2023-11-19T10:47:14;13.80;99.90
23289;DHT22;11813;50.834;4.280;2023-11-19T10:49:39;13.80;99.90
23289;DHT22;11813;50.834;4.280;2023-11-19T10:52:08;13.90;99.90
23289;DHT22;11813;50.834;4.280;2023-11-19T10:54:34;14.00;99.90
23289;DHT22;11813;50.834;4.280;2023-11-19T10:57:01;14.20;99.90
23289;DHT22;11813;50.834;4.280;2023-11-19T10:59:30;14.30;99.90
23289;DHT22;11813;50.834;4.280;2023-11-19T11:01:56;14.40;99.90
23289;DHT22;11813;50.834;4.280;2023-11-19T11:04:25;14.40;99.90
23289;DHT22;11813;50.834;4.280;2023-11-19T11:06:54;14.40;99.90
23289;DHT22;11813;50.834;4.280;2023-11-19T11:09:21;14.30;99.90
23289;DHT22;11813;50.834;4.280;2023-11-19T11:11:50;14.30;99.90
23289;DHT22;11813;50.834;4.280;2023-11-19T11:14:18;14.20;99.90
23289;DHT22;11813;50.834;4.280;2023-11-19T11:16:46;14.00;99.90
23289;DHT22;11813;50.834;4.280;2023-11-19T11:19:15;14.00;99.90
23289;DHT22;11813;50.834;4.280;2023-11-19T11:21:45;13.80;99.90
23289;DHT22;11813;50.834;4.280;2023-11-19T11:26:50;13.60;99.90
23289;DHT22;11813;50.834;4.280;2023-11-19T11:29:26;13.60;99.90
23289;DHT22;11813;50.834;4.280;2023-11-19T11:34:58;13.70;99.90
23289;DHT22;11813;50.834;4.280;2023-11-19T11:37:37;13.90;99.90
23289;DHT22;11813;50.834;4.280;2023-11-19T11:40:05;14.10;99.90
23289;DHT22;11813;50.834;4.280;2023-11-19T11:42:36;14.30;99.90
23289;DHT22;11813;50.834;4.280;2023-11-19T11:50:18;15.10;99.90
23289;DHT22;11813;50.834;4.280;2023-11-19T11:55:24;15.60;99.90
23289;DHT22;11813;50.834;4.280;2023-11-19T11:57:50;15.60;99.90
23289;DHT22;11813;50.834;4.280;2023-11-19T12:02:49;15.30;99.90
23289;DHT22;11813;50.834;4.280;2023-11-19T12:05:15;15.20;99.90
23289;DHT22;11813;50.834;4.280;2023-11-19T12:07:41;15.00;99.90
23289;DHT22;11813;50.834;4.280;2023-11-19T12:10:08;14.80;99.90
23289;DHT22;11813;50.834;4.280;2023-11-19T12:12:34;14.80;99.90
23289;DHT22;11813;50.834;4.280;2023-11-19T12:20:05;14.30;99.90
23289;DHT22;11813;50.834;4.280;2023-11-19T12:22:31;14.30;99.90
23289;DHT22;11813;50.834;4.280;2023-11-19T12:24:58;14.20;99.90
23289;DHT22;11813;50.834;4.280;2023-11-19T12:27:24;14.10;99.90
23289;DHT22;11813;50.834;4.280;2023-11-19T12:29:49;14.10;99.90
23289;DHT22;11813;50.834;4.280;2023-11-19T12:32:15;14.00;99.90
23289;DHT22;11813;50.834;4.280;2023-11-19T12:34:41;13.90;99.90
23289;DHT22;11813;50.834;4.280;2023-11-19T12:37:08;13.90;99.90
23289;DHT22;11813;50.834;4.280;2023-11-19T12:39:36;13.90;99.90
23289;DHT22;11813;50.834;4.280;2023-11-19T12:42:02;13.90;99.90
23289;DHT22;11813;50.834;4.280;2023-11-19T12:44:28;13.90;99.90
23289;DHT22;11813;50.834;4.280;2023-11-19T12:47:03;13.90;99.90
23289;DHT22;11813;50.834;4.280;2023-11-19T12:49:29;13.80;99.90
23289;DHT22;11813;50.834;4.280;2023-11-19T12:51:55;13.90;99.90
23289;DHT22;11813;50.834;4.280;2023-11-19T12:54:32;13.90;99.90
23289;DHT22;11813;50.834;4.280;2023-11-19T12:56:57;13.90;99.90
23289;DHT22;11813;50.834;4.280;2023-11-19T12:59:24;13.90;99.90
23289;DHT22;11813;50.834;4.280;2023-11-19T13:01:58;14.00;99.90
23289;DHT22;11813;50.834;4.280;2023-11-19T13:04:28;14.00;99.90
23289;DHT22;11813;50.834;4.280;2023-11-19T13:06:56;14.10;99.90
23289;DHT22;11813;50.834;4.280;2023-11-19T13:09:26;14.10;99.90
23289;DHT22;11813;50.834;4.280;2023-11-19T13:11:53;14.10;99.90
23289;DHT22;11813;50.834;4.280;2023-11-19T13:14:20;14.10;99.90
23289;DHT22;11813;50.834;4.280;2023-11-19T13:16:45;14.00;99.90
23289;DHT22;11813;50.834;4.280;2023-11-19T13:19:12;14.00;99.90
23289;DHT22;11813;50.834;4.280;2023-11-19T13:21:38;14.00;99.90
23289;DHT22;11813;50.834;4.280;2023-11-19T13:24:06;13.90;99.90
23289;DHT22;11813;50.834;4.280;2023-11-19T13:26:32;13.90;99.90
23289;DHT22;11813;50.834;4.280;2023-11-19T13:28:57;13.80;99.90
23289;DHT22;11813;50.834;4.280;2023-11-19T13:31:23;13.70;99.90
23289;DHT22;11813;50.834;4.280;2023-11-19T13:33:48;13.70;99.90
23289;DHT22;11813;50.834;4.280;2023-11-19T13:36:14;13.70;99.90
23289;DHT22;11813;50.834;4.280;2023-11-19T13:38:40;13.70;99.90
23289;DHT22;11813;50.834;4.280;2023-11-19T13:41:07;13.80;99.90
23289;DHT22;11813;50.834;4.280;2023-11-19T13:43:35;13.90;99.90
23289;DHT22;11813;50.834;4.280;2023-11-19T13:46:01;13.90;99.90
23289;DHT22;11813;50.834;4.280;2023-11-19T13:48:26;13.90;99.90
23289;DHT22;11813;50.834;4.280;2023-11-19T13:50:54;13.80;99.90
23289;DHT22;11813;50.834;4.280;2023-11-19T13:53:20;13.80;99.90
23289;DHT22;11813;50.834;4.280;2023-11-19T13:55:46;13.80;99.90
23289;DHT22;11813;50.834;4.280;2023-11-19T13:58:12;13.70;99.90
23289;DHT22;11813;50.834;4.280;2023-11-19T14:00:38;13.70;99.90
23289;DHT22;11813;50.834;4.280;2023-11-19T14:03:04;13.80;99.90
23289;DHT22;11813;50.834;4.280;2023-11-19T14:05:30;13.80;99.90
23289;DHT22;11813;50.834;4.280;2023-11-19T14:07:55;13.70;99.90
23289;DHT22;11813;50.834;4.280;2023-11-19T14:10:22;13.70;99.90
23289;DHT22;11813;50.834;4.280;2023-11-19T14:12:48;13.70;99.90
23289;DHT22;11813;50.834;4.280;2023-11-19T14:15:15;13.70;99.90
23289;DHT22;11813;50.834;4.280;2023-11-19T14:17:45;13.70;99.90
23289;DHT22;11813;50.834;4.280;2023-11-19T14:20:10;13.60;99.90
23289;DHT22;11813;50.834;4.280;2023-11-19T14:22:41;13.70;99.90
23289;DHT22;11813;50.834;4.280;2023-11-19T14:25:07;13.60;99.90
23289;DHT22;11813;50.834;4.280;2023-11-19T14:27:36;13.60;99.90
23289;DHT22;11813;50.834;4.280;2023-11-19T14:30:12;13.40;99.90
23289;DHT22;11813;50.834;4.280;2023-11-19T14:32:39;13.30;99.90
23289;DHT22;11813;50.834;4.280;2023-11-19T14:35:06;13.20;99.90
23289;DHT22;11813;50.834;4.280;2023-11-19T14:37:32;13.20;99.90
23289;DHT22;11813;50.834;4.280;2023-11-19T14:39:57;13.20;99.90
23289;DHT22;11813;50.834;4.280;2023-11-19T14:42:26;13.20;99.90
23289;DHT22;11813;50.834;4.280;2023-11-19T14:44:52;13.20;99.90
23289;DHT22;11813;50.834;4.280;2023-11-19T14:47:18;13.30;99.90
23289;DHT22;11813;50.834;4.280;2023-11-19T14:49:44;13.40;99.90
23289;DHT22;11813;50.834;4.280;2023-11-19T14:52:10;13.40;99.90
23289;DHT22;11813;50.834;4.280;2023-11-19T14:54:36;13.30;99.90
23289;DHT22;11813;50.834;4.280;2023-11-19T14:57:02;13.30;99.90
23289;DHT22;11813;50.834;4.280;2023-11-19T14:59:28;13.40;99.90
23289;DHT22;11813;50.834;4.280;2023-11-19T15:01:54;13.40;99.90
23289;DHT22;11813;50.834;4.280;2023-11-19T15:04:20;13.50;99.90
23289;DHT22;11813;50.834;4.280;2023-11-19T15:06:45;13.50;99.90
23289;DHT22;11813;50.834;4.280;2023-11-19T15:09:11;13.40;99.90
23289;DHT22;11813;50.834;4.280;2023-11-19T15:11:42;13.40;99.90
23289;DHT22;11813;50.834;4.280;2023-11-19T15:14:08;13.40;99.90
23289;DHT22;11813;50.834;4.280;2023-11-19T15:16:34;13.40;99.90
23289;DHT22;11813;50.834;4.280;2023-11-19T15:19:00;13.40;99.90
23289;DHT22;11813;50.834;4.280;2023-11-19T15:21:28;13.50;99.90
23289;DHT22;11813;50.834;4.280;2023-11-19T15:23:55;13.50;99.90
23289;DHT22;11813;50.834;4.280;2023-11-19T15:26:21;13.50;99.90
23289;DHT22;11813;50.834;4.280;2023-11-19T15:28:47;13.50;99.90
23289;DHT22;11813;50.834;4.280;2023-11-19T15:31:12;13.40;99.90
23289;DHT22;11813;50.834;4.280;2023-11-19T15:33:40;13.40;99.90
23289;DHT22;11813;50.834;4.280;2023-11-19T15:36:06;13.40;99.90
23289;DHT22;11813;50.834;4.280;2023-11-19T15:38:33;13.50;99.90
23289;DHT22;11813;50.834;4.280;2023-11-19T15:40:59;13.50;99.90
23289;DHT22;11813;50.834;4.280;2023-11-19T15:43:24;13.50;99.90
23289;DHT22;11813;50.834;4.280;2023-11-19T15:45:50;13.50;99.90
23289;DHT22;11813;50.834;4.280;2023-11-19T15:48:16;13.40;99.90
23289;DHT22;11813;50.834;4.280;2023-11-19T15:50:41;13.30;99.90